createdAt,value
2019-05-20T00:00:18.850Z,14.57
2019-05-20T00:02:47.727Z,20.13
2019-05-20T00:05:16.589Z,21.23
2019-05-20T00:07:45.448Z,18.77
2019-05-20T00:10:14.625Z,16.77
2019-05-20T00:12:43.531Z,16.60
2019-05-20T00:15:12.525Z,21.93
2019-05-20T00:17:41.279Z,18.43
2019-05-20T00:20:10.507Z,16.57
2019-05-20T00:22:39.328Z,18.50
2019-05-20T00:25:08.530Z,21.97
2019-05-20T00:27:37.464Z,19.67
2019-05-20T00:30:06.868Z,16.10
2019-05-20T00:32:41.076Z,18.90
2019-05-20T00:35:07.831Z,17.40
2019-05-20T00:37:36.909Z,15.83
2019-05-20T00:40:07.756Z,22.73
2019-05-20T00:42:36.601Z,21.23
2019-05-20T00:45:06.578Z,16.20
2019-05-20T00:47:35.446Z,20.77
2019-05-20T00:50:05.632Z,18.10
2019-05-20T00:52:34.498Z,14.13
2019-05-20T00:55:03.279Z,17.50
2019-05-20T00:57:32.192Z,15.17
2019-05-20T01:00:01.052Z,17.33
2019-05-20T01:02:29.953Z,15.67
2019-05-20T01:04:59.545Z,17.00
2019-05-20T01:07:28.419Z,16.83
2019-05-20T01:09:57.153Z,19.23
2019-05-20T01:12:26.067Z,17.50
2019-05-20T01:14:54.840Z,17.20
2019-05-20T01:17:23.602Z,17.83
2019-05-20T01:19:52.395Z,15.13
2019-05-20T01:22:21.187Z,16.30
2019-05-20T01:24:49.960Z,17.83
2019-05-20T01:27:18.879Z,17.73
2019-05-20T01:29:47.731Z,19.20
2019-05-20T01:32:16.647Z,18.03
2019-05-20T01:34:45.539Z,18.03
2019-05-20T01:37:14.412Z,19.57
2019-05-20T01:39:43.281Z,16.90
2019-05-20T01:42:12.190Z,19.90
2019-05-20T01:44:41.093Z,17.53
2019-05-20T01:47:09.817Z,19.47
2019-05-20T01:49:38.810Z,16.37
2019-05-20T01:52:07.757Z,17.37
2019-05-20T01:54:36.847Z,16.93
2019-05-20T01:57:05.960Z,20.50
2019-05-20T01:59:34.815Z,18.80
2019-05-20T02:02:03.666Z,17.40
2019-05-20T02:04:32.552Z,16.47
2019-05-20T02:07:01.437Z,18.93
2019-05-20T02:09:30.312Z,15.37
2019-05-20T02:11:59.198Z,18.87
2019-05-20T02:14:29.601Z,18.00
2019-05-20T02:16:58.459Z,17.97
2019-05-20T02:19:27.328Z,14.87
2019-05-20T02:21:56.186Z,16.23
2019-05-20T02:24:25.334Z,17.57
2019-05-20T02:26:54.272Z,20.07
2019-05-20T02:29:23.049Z,17.67
2019-05-20T02:31:51.877Z,19.50
2019-05-20T02:34:20.711Z,15.60
2019-05-20T02:36:49.555Z,16.57
2019-05-20T02:39:18.430Z,18.17
2019-05-20T02:41:47.312Z,18.43
2019-05-20T02:44:16.160Z,16.93
2019-05-20T02:46:45.065Z,19.73
2019-05-20T02:49:13.991Z,16.77
2019-05-20T02:51:42.856Z,19.43
2019-05-20T02:54:11.746Z,20.47
2019-05-20T02:56:40.719Z,18.03
2019-05-20T02:59:09.539Z,19.87
2019-05-20T03:01:38.447Z,26.53
2019-05-20T03:04:12.247Z,36.53
2019-05-20T03:06:39.323Z,44.10
2019-05-20T03:09:12.211Z,38.73
2019-05-20T03:11:39.558Z,31.70
2019-05-20T03:14:08.398Z,23.67
2019-05-20T03:16:37.236Z,20.00
2019-05-20T03:19:06.229Z,24.80
2019-05-20T03:21:35.126Z,20.67
2019-05-20T03:24:04.009Z,17.70
2019-05-20T03:26:32.972Z,18.67
2019-05-20T03:29:01.885Z,16.57
2019-05-20T03:31:30.775Z,17.77
2019-05-20T03:33:59.713Z,18.57
2019-05-20T03:36:28.591Z,16.10
2019-05-20T03:38:57.435Z,20.57
2019-05-20T03:41:26.460Z,17.83
2019-05-20T03:43:55.309Z,18.20
2019-05-20T03:46:24.193Z,20.00
2019-05-20T03:48:53.071Z,18.30
2019-05-20T03:51:21.833Z,18.67
2019-05-20T03:53:50.735Z,16.90
2019-05-20T03:56:19.694Z,19.80
2019-05-20T03:58:48.600Z,19.97
2019-05-20T04:01:17.431Z,24.87
2019-05-20T04:03:46.570Z,19.90
2019-05-20T04:06:15.428Z,18.83
2019-05-20T04:08:44.305Z,21.63
2019-05-20T04:11:13.209Z,21.97
2019-05-20T04:13:42.082Z,19.87
2019-05-20T04:16:10.953Z,16.50
2019-05-20T04:18:39.905Z,17.30
2019-05-20T04:21:08.758Z,21.60
2019-05-20T04:23:37.559Z,19.10
2019-05-20T04:26:06.493Z,18.43
2019-05-20T04:28:35.308Z,16.87
2019-05-20T04:31:04.513Z,20.17
2019-05-20T04:33:33.513Z,23.13
2019-05-20T04:36:04.410Z,17.80
2019-05-20T04:38:32.945Z,19.50
2019-05-20T04:41:04.739Z,18.90
2019-05-20T04:43:33.616Z,18.47
2019-05-20T04:46:02.486Z,17.80
2019-05-20T04:48:31.425Z,20.40
2019-05-20T04:51:00.276Z,15.30
2019-05-20T04:53:29.156Z,19.30
2019-05-20T04:55:58.032Z,19.60
2019-05-20T04:58:26.901Z,19.17
2019-05-20T05:00:56.968Z,18.47
2019-05-20T05:03:25.891Z,18.00
2019-05-20T05:05:54.740Z,20.37
2019-05-20T05:08:23.729Z,18.53
2019-05-20T05:10:53.034Z,18.37
2019-05-20T05:13:23.199Z,19.50
2019-05-20T05:15:52.146Z,18.53
2019-05-20T05:18:21.384Z,14.77
2019-05-20T05:20:51.141Z,18.33
2019-05-20T05:23:20.031Z,17.03
2019-05-20T05:25:48.994Z,15.50
2019-05-20T05:28:17.899Z,15.67
2019-05-20T05:30:47.649Z,16.27
2019-05-20T05:33:16.572Z,16.07
2019-05-20T05:35:53.272Z,13.70
2019-05-20T05:38:15.992Z,14.93
2019-05-20T05:40:44.883Z,17.50
2019-05-20T05:43:13.796Z,14.87
2019-05-20T05:45:42.548Z,16.20
2019-05-20T05:48:11.424Z,15.67
2019-05-20T05:50:40.213Z,12.43
2019-05-20T05:53:09.109Z,14.73
2019-05-20T05:55:38.051Z,14.77
2019-05-20T05:58:08.829Z,12.67
2019-05-20T06:00:37.411Z,12.27
2019-05-20T06:03:06.390Z,16.27
2019-05-20T06:05:35.354Z,16.53
2019-05-20T06:08:04.144Z,12.27
2019-05-20T06:10:35.764Z,12.40
2019-05-20T06:13:03.622Z,13.97
2019-05-20T06:15:33.040Z,15.03
2019-05-20T06:18:01.924Z,14.17
2019-05-20T06:20:30.816Z,14.93
2019-05-20T06:22:59.657Z,15.83
2019-05-20T06:25:28.492Z,12.57
2019-05-20T06:27:57.250Z,12.80
2019-05-20T06:30:29.023Z,11.40
2019-05-20T06:32:57.841Z,12.40
2019-05-20T06:35:26.668Z,12.77
2019-05-20T06:37:57.057Z,14.43
2019-05-20T06:40:25.895Z,13.90
2019-05-20T06:42:54.770Z,10.53
2019-05-20T06:45:23.504Z,10.07
2019-05-20T06:47:52.347Z,12.07
2019-05-20T06:50:21.110Z,13.53
2019-05-20T06:52:49.915Z,12.13
2019-05-20T06:55:18.717Z,12.50
2019-05-20T06:57:47.512Z,11.93
2019-05-20T07:00:19.307Z,11.70
2019-05-20T07:02:48.209Z,13.53
2019-05-20T07:05:16.955Z,12.60
2019-05-20T07:07:45.804Z,12.57
2019-05-20T07:10:14.882Z,13.33
2019-05-20T07:12:43.612Z,13.13
2019-05-20T07:15:12.555Z,11.93
2019-05-20T07:17:41.532Z,14.90
2019-05-20T07:20:10.753Z,11.60
2019-05-20T07:22:54.507Z,13.03
2019-05-20T07:25:10.182Z,12.77
2019-05-20T07:27:38.987Z,13.50
2019-05-20T07:30:08.218Z,13.00
2019-05-20T07:32:37.128Z,12.80
2019-05-20T07:35:07.694Z,11.40
2019-05-20T07:37:36.829Z,10.37
2019-05-20T07:40:06.974Z,10.20
2019-05-20T07:42:35.752Z,10.63
2019-05-20T07:45:08.893Z,10.23
2019-05-20T07:47:38.089Z,10.57
2019-05-20T07:50:11.347Z,12.50
2019-05-20T07:52:40.111Z,8.33
2019-05-20T07:55:09.178Z,10.17
2019-05-20T07:57:40.894Z,10.63
2019-05-20T08:00:10.362Z,10.37
2019-05-20T08:02:39.595Z,8.67
2019-05-20T08:05:09.988Z,9.50
2019-05-20T08:07:51.141Z,9.53
2019-05-20T08:10:09.893Z,9.60
2019-05-20T08:12:38.752Z,14.03
2019-05-20T08:15:08.902Z,10.13
2019-05-20T08:17:37.806Z,9.57
2019-05-20T08:20:07.827Z,8.33
2019-05-20T08:22:36.560Z,9.17
2019-05-20T08:25:07.196Z,7.80
2019-05-20T08:27:35.942Z,7.33
2019-05-20T08:30:08.059Z,7.73
2019-05-20T08:32:36.957Z,7.83
2019-05-20T08:35:09.192Z,9.63
2019-05-20T08:37:45.549Z,8.33
2019-05-20T08:40:08.695Z,7.77
2019-05-20T08:42:37.480Z,7.30
2019-05-20T08:45:07.871Z,9.37
2019-05-20T08:47:36.689Z,6.10
2019-05-20T08:50:13.138Z,5.47
2019-05-20T08:52:37.854Z,6.57
2019-05-20T08:55:07.021Z,5.50
2019-05-20T08:57:35.787Z,5.70
2019-05-20T09:00:05.747Z,5.40
2019-05-20T09:02:34.642Z,6.10
2019-05-20T09:05:03.624Z,5.37
2019-05-20T09:07:32.404Z,5.90
2019-05-20T09:10:01.289Z,6.33
2019-05-20T09:12:30.117Z,11.63
2019-05-20T09:14:58.944Z,7.63
2019-05-20T09:17:27.858Z,8.10
2019-05-20T09:19:56.648Z,6.10
2019-05-20T09:22:25.456Z,10.30
2019-05-20T09:24:54.397Z,6.77
2019-05-20T09:27:23.267Z,9.80
2019-05-20T09:29:52.021Z,6.27
2019-05-20T09:32:20.920Z,7.53
2019-05-20T09:34:49.765Z,6.57
2019-05-20T09:37:18.513Z,6.13
2019-05-20T09:39:47.427Z,7.57
2019-05-20T09:42:16.201Z,7.43
2019-05-20T09:44:44.976Z,7.20
2019-05-20T09:47:13.911Z,14.53
2019-05-20T09:49:42.779Z,10.13
2019-05-20T09:52:11.603Z,5.90
2019-05-20T09:54:40.468Z,9.53
2019-05-20T09:57:09.322Z,8.33
2019-05-20T09:59:43.237Z,8.30
2019-05-20T10:02:08.682Z,6.20
2019-05-20T10:04:37.518Z,5.93
2019-05-20T10:07:06.288Z,7.00
2019-05-20T10:09:35.204Z,8.00
2019-05-20T10:12:04.059Z,6.60
2019-05-20T10:14:32.833Z,7.00
2019-05-20T10:17:01.912Z,6.90
2019-05-20T10:19:31.078Z,8.27
2019-05-20T10:21:59.914Z,7.40
2019-05-20T10:24:28.799Z,10.23
2019-05-20T10:26:57.713Z,10.80
2019-05-20T10:29:26.551Z,7.37
2019-05-20T10:31:55.490Z,9.67
2019-05-20T10:34:24.279Z,10.77
2019-05-20T10:36:53.115Z,7.30
2019-05-20T10:39:21.974Z,8.23
2019-05-20T10:41:50.921Z,9.43
2019-05-20T10:44:19.701Z,10.77
2019-05-20T10:46:48.585Z,7.53
2019-05-20T10:49:17.406Z,7.53
2019-05-20T10:51:46.249Z,6.87
2019-05-20T10:54:15.125Z,7.00
2019-05-20T10:56:43.890Z,8.83
2019-05-20T10:59:12.799Z,9.73
2019-05-20T11:01:41.657Z,10.80
2019-05-20T11:04:10.498Z,6.40
2019-05-20T11:06:39.258Z,7.83
2019-05-20T11:09:14.183Z,6.17
2019-05-20T11:11:39.495Z,7.07
2019-05-20T11:14:08.470Z,6.47
2019-05-20T11:16:37.431Z,6.57
2019-05-20T11:19:06.291Z,6.53
2019-05-20T11:21:35.105Z,7.50
2019-05-20T11:24:03.991Z,7.87
2019-05-20T11:26:32.758Z,8.23
2019-05-20T11:29:01.985Z,6.87
2019-05-20T11:31:30.792Z,7.53
2019-05-20T11:33:59.602Z,10.20
2019-05-20T11:36:28.339Z,8.27
2019-05-20T11:38:57.199Z,6.60
2019-05-20T11:41:52.042Z,7.27
2019-05-20T11:43:56.458Z,6.93
2019-05-20T11:46:25.347Z,7.33
2019-05-20T11:48:54.198Z,8.40
2019-05-20T11:51:23.107Z,6.90
2019-05-20T11:53:51.983Z,7.83
2019-05-20T11:56:20.834Z,6.63
2019-05-20T11:58:49.641Z,6.93
2019-05-20T12:01:18.522Z,8.73
2019-05-20T12:03:47.366Z,9.63
2019-05-20T12:06:16.107Z,7.37
2019-05-20T12:08:45.025Z,7.03
2019-05-20T12:11:13.890Z,8.93
2019-05-20T12:13:42.755Z,8.07
2019-05-20T12:16:11.626Z,10.07
2019-05-20T12:18:40.435Z,7.43
2019-05-20T12:21:09.529Z,8.50
2019-05-20T12:23:38.446Z,8.90
2019-05-20T12:26:07.284Z,6.60
2019-05-20T12:28:36.143Z,10.77
2019-05-20T12:31:05.024Z,9.20
2019-05-20T12:33:33.843Z,7.17
2019-05-20T12:36:02.662Z,9.27
2019-05-20T12:38:31.466Z,8.90
2019-05-20T12:41:00.343Z,7.03
2019-05-20T12:43:29.145Z,10.03
2019-05-20T12:45:58.031Z,7.70
2019-05-20T12:48:26.887Z,9.33
2019-05-20T12:50:55.719Z,9.40
2019-05-20T12:53:24.530Z,8.43
2019-05-20T12:55:53.320Z,9.50
2019-05-20T12:58:22.064Z,7.13
2019-05-20T13:00:51.237Z,6.03
2019-05-20T13:03:20.067Z,9.47
2019-05-20T13:05:48.940Z,12.07
2019-05-20T13:08:17.833Z,6.93
2019-05-20T13:10:46.662Z,7.60
2019-05-20T13:13:15.506Z,7.17
2019-05-20T13:15:44.454Z,7.90
2019-05-20T13:18:13.188Z,7.60
2019-05-20T13:20:43.028Z,7.37
2019-05-20T13:23:14.422Z,8.07
2019-05-20T13:25:42.479Z,6.73
2019-05-20T13:28:11.303Z,9.93
2019-05-20T13:30:40.227Z,9.97
2019-05-20T13:33:09.086Z,13.43
2019-05-20T13:35:37.826Z,7.50
2019-05-20T13:38:06.718Z,8.27
2019-05-20T13:40:45.974Z,7.90
2019-05-20T13:43:06.164Z,10.53
2019-05-20T13:45:34.984Z,10.33
2019-05-20T13:48:03.826Z,10.00
2019-05-20T13:50:32.592Z,12.53
2019-05-20T13:53:01.475Z,8.30
2019-05-20T13:55:30.324Z,11.77
2019-05-20T13:57:59.521Z,11.87
2019-05-20T14:00:28.542Z,11.33
2019-05-20T14:03:01.434Z,17.07
2019-05-20T14:22:56.321Z,16.10
2019-05-20T14:25:30.305Z,12.33
2019-05-20T14:34:35.195Z,10.13
2019-05-20T14:37:04.540Z,6.63
2019-05-20T14:39:33.755Z,10.70
2019-05-20T14:42:02.855Z,8.37
2019-05-20T14:44:32.000Z,11.17
2019-05-20T14:47:01.178Z,9.43
2019-05-20T14:49:30.075Z,11.40
2019-05-20T14:51:59.171Z,10.47
2019-05-20T14:54:28.590Z,9.33
2019-05-20T14:56:57.531Z,10.43
2019-05-20T14:59:26.353Z,7.37
2019-05-20T15:01:55.236Z,6.40
2019-05-20T15:04:24.120Z,6.53
2019-05-20T15:06:53.088Z,10.27
2019-05-20T15:09:22.022Z,6.17
2019-05-20T15:11:51.008Z,9.10
2019-05-20T15:14:19.987Z,8.73
2019-05-20T15:16:48.882Z,8.00
2019-05-20T15:19:17.712Z,8.23
2019-05-20T15:21:46.857Z,6.70
2019-05-20T15:24:15.822Z,7.40
2019-05-20T15:26:44.789Z,8.30
2019-05-20T15:29:26.961Z,9.40
2019-05-20T15:31:44.212Z,7.00
2019-05-20T15:34:13.087Z,8.07
2019-05-20T15:36:41.958Z,9.63
2019-05-20T15:39:10.808Z,7.03
2019-05-20T15:41:39.746Z,13.20
2019-05-20T15:44:08.588Z,6.80
2019-05-20T15:46:37.443Z,8.87
2019-05-20T15:49:06.367Z,8.97
2019-05-20T15:51:35.437Z,8.57
2019-05-20T15:54:04.535Z,6.57
2019-05-20T15:56:33.778Z,6.97
2019-05-20T15:59:02.603Z,8.23
2019-05-20T16:01:31.624Z,9.83
2019-05-20T16:04:00.484Z,11.20
2019-05-20T16:06:29.293Z,8.50
2019-05-20T16:08:58.409Z,8.83
2019-05-20T16:11:27.247Z,7.20
2019-05-20T16:13:56.114Z,8.23
2019-05-20T16:16:24.986Z,6.63
2019-05-20T16:18:53.830Z,8.00
2019-05-20T16:21:22.693Z,7.90
2019-05-20T16:23:51.661Z,10.03
2019-05-20T16:26:20.543Z,8.17
2019-05-20T16:28:49.371Z,8.50
2019-05-20T16:31:18.329Z,6.33
2019-05-20T16:33:48.104Z,7.70
2019-05-20T16:36:16.878Z,8.60
2019-05-20T16:38:45.724Z,6.87
2019-05-20T16:41:14.811Z,10.77
2019-05-20T16:43:43.635Z,8.23
2019-05-20T16:46:12.459Z,9.83
2019-05-20T16:48:41.310Z,8.87
2019-05-20T16:51:11.511Z,7.80
2019-05-20T16:53:40.394Z,10.67
2019-05-20T16:56:09.270Z,9.40
2019-05-20T16:58:39.019Z,10.10
2019-05-20T17:01:07.927Z,8.93
2019-05-20T17:03:36.905Z,8.87
2019-05-20T17:06:05.681Z,10.60
2019-05-20T17:08:34.591Z,9.93
2019-05-20T17:11:05.267Z,8.70
2019-05-20T17:13:34.222Z,8.90
2019-05-20T17:16:03.272Z,8.30
2019-05-20T17:18:32.235Z,9.97
2019-05-20T17:21:02.376Z,9.13
2019-05-20T17:23:31.531Z,7.77
2019-05-20T17:26:02.432Z,11.00
2019-05-20T17:28:31.530Z,10.37
2019-05-20T17:31:00.654Z,10.70
2019-05-20T17:33:29.831Z,8.27
2019-05-20T17:35:58.819Z,9.70
2019-05-20T17:38:29.431Z,9.10
2019-05-20T17:40:59.065Z,10.67
2019-05-20T17:43:28.156Z,11.10
2019-05-20T17:45:58.427Z,11.60
2019-05-20T17:48:27.268Z,14.37
2019-05-20T17:50:56.175Z,9.50
2019-05-20T17:53:25.411Z,11.97
2019-05-20T17:55:55.444Z,13.27
2019-05-20T17:58:24.815Z,16.70
2019-05-20T18:00:53.786Z,13.90
2019-05-20T18:03:22.757Z,10.57
2019-05-20T18:05:51.639Z,18.23
2019-05-20T18:08:20.613Z,12.70
2019-05-20T18:10:49.550Z,12.77
2019-05-20T18:13:18.329Z,13.73
2019-05-20T18:15:47.250Z,11.67
2019-05-20T18:18:16.093Z,14.30
2019-05-20T18:20:44.994Z,12.80
2019-05-20T18:23:13.908Z,12.60
2019-05-20T18:25:42.728Z,12.33
2019-05-20T18:28:12.945Z,12.10
2019-05-20T18:30:41.828Z,11.33
2019-05-20T18:33:10.606Z,11.77
2019-05-20T18:35:39.413Z,14.67
2019-05-20T18:38:08.305Z,11.73
2019-05-20T18:40:37.186Z,17.67
2019-05-20T18:43:06.031Z,12.70
2019-05-20T18:45:34.937Z,15.53
2019-05-20T18:48:03.782Z,13.73
2019-05-20T18:50:32.628Z,11.60
2019-05-20T18:53:01.503Z,15.17
2019-05-20T18:55:30.363Z,13.77
2019-05-20T18:57:59.229Z,15.57
2019-05-20T19:00:28.146Z,12.03
2019-05-20T19:02:56.953Z,15.90
2019-05-20T19:05:25.833Z,13.93
2019-05-20T19:07:54.701Z,12.60
2019-05-20T19:10:23.658Z,11.17
2019-05-20T19:12:52.957Z,15.73
2019-05-20T19:15:21.822Z,10.57
2019-05-20T19:17:50.682Z,13.13
2019-05-20T19:20:22.889Z,13.33
2019-05-20T19:22:50.356Z,11.37
2019-05-20T19:25:19.200Z,11.47
2019-05-20T19:27:48.112Z,11.43
2019-05-20T19:30:17.200Z,11.30
2019-05-20T19:32:46.068Z,12.17
2019-05-20T19:35:15.259Z,12.60
2019-05-20T19:37:44.153Z,11.07
2019-05-20T19:40:30.040Z,9.10
2019-05-20T19:42:58.791Z,9.83
2019-05-20T19:45:27.651Z,11.53
2019-05-20T19:47:57.639Z,7.60
2019-05-20T19:50:26.558Z,9.30
2019-05-20T19:52:55.353Z,11.57
2019-05-20T19:55:24.186Z,9.70
2019-05-20T19:57:52.998Z,9.30
2019-05-20T20:00:22.559Z,9.73
2019-05-20T20:02:51.381Z,11.07
2019-05-20T20:05:20.399Z,9.77
2019-05-20T20:07:50.592Z,10.90
2019-05-20T20:10:19.395Z,12.57
2019-05-20T20:12:48.197Z,9.40
2019-05-20T20:15:19.821Z,10.80
2019-05-20T20:17:48.581Z,12.20
2019-05-20T20:20:17.456Z,9.40
2019-05-20T20:22:46.325Z,10.90
2019-05-20T20:25:15.224Z,10.17
2019-05-20T20:27:44.117Z,10.10
2019-05-20T20:30:13.277Z,9.10
2019-05-20T20:32:42.134Z,12.60
2019-05-20T20:35:11.165Z,10.00
2019-05-20T20:37:39.960Z,9.77
2019-05-20T20:40:09.700Z,12.80
2019-05-20T20:42:38.549Z,11.73
2019-05-20T20:45:07.560Z,8.83
2019-05-20T20:47:41.944Z,10.37
2019-05-20T20:50:07.352Z,11.93
2019-05-20T20:52:36.205Z,13.97
2019-05-20T20:55:06.873Z,11.20
2019-05-20T20:57:35.941Z,12.80
2019-05-20T21:00:07.971Z,10.73
2019-05-20T21:02:36.797Z,11.30
2019-05-20T21:05:07.274Z,11.60
2019-05-20T21:07:36.125Z,12.50
2019-05-20T21:10:07.648Z,13.73
2019-05-20T21:12:36.561Z,10.37
2019-05-20T21:15:06.518Z,10.87
2019-05-20T21:17:35.256Z,11.40
2019-05-20T21:20:05.598Z,11.67
2019-05-20T21:22:34.384Z,13.03
2019-05-20T21:25:03.165Z,14.70
2019-05-20T21:27:31.998Z,10.23
2019-05-20T21:30:00.721Z,11.50
2019-05-20T21:32:29.487Z,12.90
2019-05-20T21:34:58.387Z,11.80
2019-05-20T21:37:27.197Z,10.83
2019-05-20T21:39:55.947Z,10.50
2019-05-20T21:42:24.800Z,10.67
2019-05-20T21:44:53.545Z,13.60
2019-05-20T21:47:22.382Z,10.30
2019-05-20T21:49:51.200Z,11.10
2019-05-20T21:52:19.972Z,9.90
2019-05-20T21:54:48.811Z,13.87
2019-05-20T21:57:17.656Z,12.97
2019-05-20T21:59:46.421Z,9.40
2019-05-20T22:02:15.167Z,14.13
2019-05-20T22:04:44.091Z,10.07
2019-05-20T22:07:12.932Z,12.10
2019-05-20T22:09:42.159Z,9.27
2019-05-20T22:12:11.003Z,10.73
2019-05-20T22:14:39.837Z,12.23
2019-05-20T22:17:08.689Z,10.13
2019-05-20T22:19:37.570Z,9.73
2019-05-20T22:22:24.306Z,9.30
2019-05-20T22:24:53.221Z,9.50
2019-05-20T22:27:22.138Z,8.77
2019-05-20T22:29:51.048Z,8.73
2019-05-20T22:32:19.963Z,10.70
2019-05-20T22:34:53.449Z,8.40
2019-05-20T22:37:19.397Z,11.93
2019-05-20T22:39:48.497Z,11.33
2019-05-20T22:42:17.257Z,10.17
2019-05-20T22:44:46.507Z,9.90
2019-05-20T22:47:15.787Z,10.60
2019-05-20T22:49:44.625Z,11.97
2019-05-20T22:52:13.431Z,9.33
2019-05-20T22:54:42.217Z,9.57
2019-05-20T22:57:11.035Z,11.07
2019-05-20T22:59:39.784Z,8.13
2019-05-20T23:02:08.634Z,11.07
2019-05-20T23:04:37.395Z,8.27
2019-05-20T23:07:06.215Z,11.43
2019-05-20T23:09:35.515Z,32.03
2019-05-20T23:12:04.366Z,8.07
2019-05-20T23:14:33.209Z,8.50
2019-05-20T23:17:02.108Z,8.33
2019-05-20T23:19:30.879Z,10.10
2019-05-20T23:21:59.930Z,8.43
2019-05-20T23:24:29.160Z,9.33
2019-05-20T23:26:57.908Z,10.53
2019-05-20T23:29:26.936Z,8.80
2019-05-20T23:31:56.140Z,9.00
2019-05-20T23:34:24.966Z,12.00
2019-05-20T23:36:53.817Z,8.13
2019-05-20T23:39:22.555Z,10.50
2019-05-20T23:41:51.334Z,9.03
2019-05-20T23:44:20.202Z,9.33
2019-05-20T23:46:49.073Z,10.50
2019-05-20T23:49:18.189Z,11.00
2019-05-20T23:51:47.467Z,8.00
2019-05-20T23:54:16.344Z,9.13
2019-05-20T23:56:45.589Z,8.33
2019-05-20T23:59:14.426Z,9.27
